Time;durP1;ratioP1;P1;durP2;ratioP2;P2;SDS_P1;SDS_P2;PMS_P1;PMS_P2;Temp;Humidity;BMP_temperature;BMP_pressure;BME280_temperature;BME280_humidity;BME280_pressure;Samples;Min_cycle;Max_cycle;Signal;HPM_P1;HPM_P2
2021/11/23 00:01:40;;;;;;;13.57;8.10;;;2.60;93.30;;;;;;5087717;28;20201;-76
2021/11/23 00:04:06;;;;;;;12.50;6.70;;;2.60;93.30;;;;;;5088521;28;20194;-75
2021/11/23 00:06:34;;;;;;;10.37;7.07;;;2.60;93.20;;;;;;5089126;28;20187;-75
2021/11/23 00:09:01;;;;;;;16.63;7.47;;;2.60;93.20;;;;;;5089021;28;20215;-76
2021/11/23 00:11:27;;;;;;;13.50;6.90;;;2.60;93.00;;;;;;5086958;28;20176;-75
2021/11/23 00:13:52;;;;;;;12.87;6.90;;;2.60;92.70;;;;;;5087913;28;20211;-75
2021/11/23 00:16:18;;;;;;;13.30;8.00;;;2.60;92.70;;;;;;5088835;28;20179;-75
2021/11/23 00:18:45;;;;;;;12.63;7.13;;;2.50;92.70;;;;;;5089156;28;20444;-75
2021/11/23 00:21:11;;;;;;;11.35;6.95;;;2.50;92.80;;;;;;5088459;28;20601;-75
2021/11/23 00:23:37;;;;;;;13.93;8.27;;;2.40;93.00;;;;;;5088173;28;20191;-75
2021/11/23 00:26:03;;;;;;;14.40;7.10;;;2.40;93.00;;;;;;5089141;28;20183;-75
2021/11/23 00:28:29;;;;;;;13.32;7.00;;;2.30;93.10;;;;;;5082633;28;20599;-76
2021/11/23 00:30:54;;;;;;;12.47;7.50;;;2.30;93.30;;;;;;5088615;28;20194;-75
2021/11/23 00:33:20;;;;;;;11.67;7.27;;;2.20;93.30;;;;;;5085786;28;20452;-75
2021/11/23 00:35:46;;;;;;;18.20;7.50;;;2.20;93.40;;;;;;5087933;28;20185;-76
2021/11/23 00:38:12;;;;;;;12.47;7.60;;;2.20;93.40;;;;;;5088718;28;20563;-75
2021/11/23 00:40:38;;;;;;;13.32;8.10;;;2.20;93.50;;;;;;5086599;28;20280;-76
2021/11/23 00:43:04;;;;;;;13.00;7.80;;;2.20;93.50;;;;;;5088467;28;20226;-75
2021/11/23 00:45:35;;;;;;;14.38;7.90;;;2.20;93.50;;;;;;5120187;27;20421;-75
2021/11/23 00:48:01;;;;;;;14.93;8.07;;;2.10;93.50;;;;;;5088347;28;20203;-76
2021/11/23 00:50:28;;;;;;;18.17;8.25;;;2.10;93.50;;;;;;5088220;28;20668;-75
2021/11/23 00:52:54;;;;;;;25.65;8.65;;;2.10;93.40;;;;;;5088339;28;20757;-75
2021/11/23 00:55:20;;;;;;;12.57;7.20;;;2.10;93.40;;;;;;5087705;28;20258;-75
2021/11/23 00:57:46;;;;;;;15.43;8.30;;;2.10;93.40;;;;;;5087440;28;20891;-75
2021/11/23 01:00:12;;;;;;;13.37;7.63;;;2.10;93.40;;;;;;5088004;28;20175;-76
2021/11/23 01:02:38;;;;;;;12.85;8.00;;;2.20;93.30;;;;;;5086814;28;20464;-75
2021/11/23 01:05:05;;;;;;;12.17;7.30;;;2.10;93.20;;;;;;5087234;28;20606;-75
2021/11/23 01:07:31;;;;;;;10.43;6.85;;;2.10;93.20;;;;;;5086894;28;21246;-75
2021/11/23 01:09:57;;;;;;;14.20;8.10;;;2.10;93.10;;;;;;5086490;28;20202;-75
2021/11/23 01:12:23;;;;;;;12.80;6.70;;;2.10;93.20;;;;;;5087010;28;20488;-75
2021/11/23 01:14:49;;;;;;;15.88;8.40;;;2.00;93.20;;;;;;5087578;28;20301;-75
2021/11/23 01:17:15;;;;;;;16.43;8.30;;;2.00;93.20;;;;;;5088734;28;20183;-74
2021/11/23 01:19:42;;;;;;;13.20;7.25;;;1.90;93.10;;;;;;5088012;28;20473;-74
2021/11/23 01:22:08;;;;;;;13.38;8.05;;;1.90;93.20;;;;;;5088049;28;20191;-75
2021/11/23 01:24:33;;;;;;;13.93;8.83;;;1.90;93.20;;;;;;5087294;28;20298;-76
2021/11/23 01:26:59;;;;;;;12.80;7.40;;;1.80;93.30;;;;;;5088012;28;20183;-76
2021/11/23 01:29:25;;;;;;;16.37;8.40;;;1.80;93.40;;;;;;5088872;28;20210;-75
2021/11/23 01:31:51;;;;;;;12.83;7.90;;;1.90;93.50;;;;;;5087487;28;20330;-76
2021/11/23 01:34:19;;;;;;;15.23;7.77;;;1.90;93.50;;;;;;5083934;28;20918;-74
2021/11/23 01:36:46;;;;;;;13.85;8.07;;;1.80;93.50;;;;;;5088026;28;20998;-76
2021/11/23 01:39:12;;;;;;;15.10;8.02;;;1.80;93.50;;;;;;5084479;28;20200;-76
2021/11/23 01:41:37;;;;;;;15.47;8.13;;;1.80;93.60;;;;;;5093655;28;20239;-75
2021/11/23 01:44:03;;;;;;;19.43;8.00;;;1.80;93.60;;;;;;5086678;28;20184;-75
2021/11/23 01:46:29;;;;;;;11.82;6.85;;;1.80;93.60;;;;;;5087612;28;20650;-76
2021/11/23 01:48:55;;;;;;;15.23;8.03;;;1.80;93.60;;;;;;5087928;28;20225;-76
2021/11/23 01:51:21;;;;;;;14.80;8.10;;;1.70;93.60;;;;;;5087448;28;20295;-75
2021/11/23 01:53:47;;;;;;;13.97;7.40;;;1.60;93.60;;;;;;5087017;28;20210;-76
2021/11/23 01:56:13;;;;;;;15.00;8.20;;;1.60;93.70;;;;;;5086826;28;20260;-74
2021/11/23 01:58:39;;;;;;;15.38;8.93;;;1.50;93.80;;;;;;5088070;28;20362;-75
2021/11/23 02:01:08;;;;;;;16.10;8.80;;;1.50;94.10;;;;;;5086968;28;21083;-76
2021/11/23 02:03:38;;;;;;;18.63;8.65;;;1.40;94.10;;;;;;5091321;28;20183;-75
2021/11/23 02:06:05;;;;;;;13.68;7.93;;;1.40;94.20;;;;;;5090847;28;20234;-76
2021/11/23 02:08:31;;;;;;;15.45;8.68;;;1.40;94.30;;;;;;5090291;28;20278;-75
2021/11/23 02:10:57;;;;;;;15.23;7.40;;;1.40;94.40;;;;;;5093628;28;20268;-75
2021/11/23 02:13:23;;;;;;;14.85;7.55;;;1.30;94.40;;;;;;5093378;28;21056;-75
2021/11/23 02:15:50;;;;;;;14.18;8.57;;;1.30;94.40;;;;;;5088936;28;20179;-76
2021/11/23 02:18:21;;;;;;;13.98;7.93;;;1.20;94.60;;;;;;5090943;28;20211;-76
2021/11/23 02:20:47;;;;;;;12.85;7.20;;;1.20;94.70;;;;;;5092501;28;20187;-75
2021/11/23 02:23:14;;;;;;;15.90;8.00;;;1.20;94.80;;;;;;5090724;28;20225;-75
2021/11/23 02:25:40;;;;;;;15.05;8.02;;;1.20;94.90;;;;;;5090384;28;20195;-75
2021/11/23 02:28:07;;;;;;;18.80;9.85;;;1.10;95.00;;;;;;5091247;28;20218;-75
2021/11/23 02:30:45;;;;;;;14.27;7.60;;;1.10;95.10;;;;;;5090596;28;20248;-76
2021/11/23 02:33:15;;;;;;;15.55;7.65;;;1.00;95.30;;;;;;5088427;28;20213;-75
2021/11/23 02:35:41;;;;;;;13.63;8.50;;;1.00;95.40;;;;;;5090035;28;20674;-76
2021/11/23 02:38:07;;;;;;;17.23;9.23;;;1.00;95.40;;;;;;5090613;28;20203;-74
2021/11/23 02:40:33;;;;;;;16.50;9.20;;;1.00;95.60;;;;;;5086845;28;20473;-75
2021/11/23 02:42:59;;;;;;;14.53;8.63;;;1.00;95.50;;;;;;5090708;28;20744;-75
2021/11/23 02:45:26;;;;;;;16.77;8.20;;;1.10;95.50;;;;;;5088349;28;20785;-75
2021/11/23 02:47:54;;;;;;;14.55;9.15;;;1.10;95.40;;;;;;5090765;28;20203;-75
2021/11/23 02:50:22;;;;;;;17.00;8.15;;;1.10;95.30;;;;;;5090001;28;20186;-76
2021/11/23 02:52:50;;;;;;;17.75;8.38;;;1.10;95.20;;;;;;5090596;28;20215;-76
2021/11/23 02:55:17;;;;;;;17.40;9.20;;;1.10;95.00;;;;;;5087927;28;20183;-76
2021/11/23 02:57:43;;;;;;;18.23;9.23;;;1.00;95.00;;;;;;5090907;28;20231;-76
2021/11/23 03:00:35;;;;;;;14.10;8.33;;;1.00;95.20;;;;;;5088972;28;20304;-76
2021/11/23 03:03:01;;;;;;;15.98;8.35;;;1.00;95.20;;;;;;5086773;28;20907;-76
2021/11/23 03:05:28;;;;;;;14.97;8.13;;;1.00;95.30;;;;;;5089323;28;20232;-76
2021/11/23 03:07:54;;;;;;;13.75;8.60;;;1.00;95.20;;;;;;5090143;28;20298;-75
2021/11/23 03:10:22;;;;;;;16.17;8.95;;;0.90;95.30;;;;;;5089804;28;20198;-74
2021/11/23 03:12:52;;;;;;;15.05;7.55;;;0.90;95.30;;;;;;5090328;28;20196;-75
2021/11/23 03:15:19;;;;;;;16.60;8.77;;;0.90;95.30;;;;;;5089157;28;20744;-75
2021/11/23 03:17:45;;;;;;;17.10;9.82;;;0.80;95.20;;;;;;5089874;28;20219;-76
2021/11/23 03:20:15;;;;;;;15.48;8.25;;;0.70;95.20;;;;;;5088315;28;20187;-75
2021/11/23 03:22:41;;;;;;;15.98;9.25;;;0.80;95.40;;;;;;5083643;28;20175;-75
2021/11/23 03:25:08;;;;;;;17.43;9.03;;;0.70;95.60;;;;;;5087432;28;20611;-74
2021/11/23 03:27:34;;;;;;;14.93;8.48;;;0.70;95.60;;;;;;5089910;28;20429;-76
2021/11/23 03:30:00;;;;;;;16.52;8.93;;;0.70;95.80;;;;;;5089343;28;20238;-76
2021/11/23 03:32:26;;;;;;;16.58;10.07;;;0.70;95.80;;;;;;5085341;28;20673;-77
2021/11/23 03:34:52;;;;;;;16.60;9.07;;;0.70;95.80;;;;;;5088716;28;20187;-75
2021/11/23 03:37:22;;;;;;;15.07;8.37;;;0.70;95.80;;;;;;5088378;28;20429;-74
2021/11/23 03:39:49;;;;;;;17.45;8.77;;;0.70;95.80;;;;;;5089526;28;20424;-77
2021/11/23 03:42:15;;;;;;;15.70;8.85;;;0.60;95.70;;;;;;5089991;28;20210;-76
2021/11/23 03:44:41;;;;;;;16.35;9.13;;;0.60;95.70;;;;;;5089065;28;20227;-75
2021/11/23 03:47:08;;;;;;;16.83;8.77;;;0.60;95.70;;;;;;5089619;28;20202;-76
2021/11/23 03:49:36;;;;;;;15.35;8.73;;;0.60;95.70;;;;;;5088122;28;20256;-77
2021/11/23 03:52:04;;;;;;;14.82;8.60;;;0.60;95.80;;;;;;5089792;28;20176;-74
2021/11/23 03:54:30;;;;;;;20.38;9.45;;;0.50;95.80;;;;;;5081492;28;20195;-75
2021/11/23 03:56:56;;;;;;;16.73;9.70;;;0.50;95.80;;;;;;5089939;28;20224;-74
2021/11/23 03:59:21;;;;;;;16.23;9.60;;;0.50;95.90;;;;;;5090771;28;20199;-75
2021/11/23 04:01:47;;;;;;;20.90;11.00;;;0.50;96.00;;;;;;5091112;28;20893;-75
2021/11/23 04:04:13;;;;;;;25.20;10.43;;;0.50;96.00;;;;;;5090727;28;20194;-74
2021/11/23 04:06:39;;;;;;;15.97;8.90;;;0.50;95.90;;;;;;5091226;28;20503;-74
2021/11/23 04:09:05;;;;;;;17.50;9.80;;;0.50;95.90;;;;;;5090654;28;20464;-75
2021/11/23 04:11:31;;;;;;;18.27;9.73;;;0.50;95.90;;;;;;5091104;28;20191;-75
2021/11/23 04:13:57;;;;;;;19.90;9.90;;;0.50;95.90;;;;;;5089374;28;20696;-75
2021/11/23 04:16:24;;;;;;;22.65;10.23;;;0.40;96.00;;;;;;5090694;28;21454;-73
2021/11/23 04:18:51;;;;;;;20.65;9.80;;;0.50;96.00;;;;;;5090411;28;20203;-74
2021/11/23 04:21:17;;;;;;;21.85;11.02;;;0.50;96.20;;;;;;5091042;28;20228;-74
2021/11/23 04:23:43;;;;;;;22.58;9.73;;;0.70;96.10;;;;;;5088940;28;20645;-76
2021/11/23 04:26:09;;;;;;;18.77;9.00;;;0.80;95.80;;;;;;5088853;28;20252;-74
2021/11/23 04:28:34;;;;;;;16.93;8.50;;;0.90;95.50;;;;;;5089073;28;20497;-76
2021/11/23 04:31:00;;;;;;;17.90;8.80;;;0.90;95.10;;;;;;5088544;28;20203;-76
2021/11/23 04:33:26;;;;;;;17.75;9.50;;;0.90;94.90;;;;;;5086669;28;20207;-75
2021/11/23 04:35:52;;;;;;;14.73;9.13;;;1.00;94.80;;;;;;5087566;28;20179;-75
2021/11/23 04:38:18;;;;;;;19.30;9.50;;;1.00;94.70;;;;;;5086109;28;20796;-75
2021/11/23 04:40:44;;;;;;;22.60;10.60;;;0.90;94.60;;;;;;5084039;28;20502;-75
2021/11/23 04:43:10;;;;;;;18.77;10.30;;;0.90;94.60;;;;;;5086376;28;20517;-75
2021/11/23 04:45:37;;;;;;;20.40;9.40;;;0.80;94.60;;;;;;5088720;28;20186;-76
2021/11/23 04:48:03;;;;;;;18.58;10.23;;;0.80;94.60;;;;;;5088621;28;20469;-75
2021/11/23 04:50:29;;;;;;;17.25;9.45;;;0.70;94.60;;;;;;5088951;28;20179;-76
2021/11/23 04:52:55;;;;;;;19.80;9.27;;;0.70;94.50;;;;;;5090413;28;20210;-75
2021/11/23 04:55:21;;;;;;;17.77;9.80;;;0.60;94.60;;;;;;5094849;28;20174;-76
2021/11/23 04:57:47;;;;;;;17.58;10.30;;;0.60;94.60;;;;;;5093056;28;20206;-76
2021/11/23 05:00:16;;;;;;;22.40;10.47;;;0.50;94.80;;;;;;5095306;28;20175;-74
2021/11/23 05:02:42;;;;;;;22.27;11.55;;;0.50;94.90;;;;;;5093025;28;20415;-75
2021/11/23 05:05:09;;;;;;;18.23;9.32;;;0.40;95.00;;;;;;5089354;28;20175;-76
2021/11/23 05:07:35;;;;;;;17.33;9.60;;;0.40;95.10;;;;;;5087169;28;20275;-75
2021/11/23 05:10:01;;;;;;;19.42;9.93;;;0.30;95.20;;;;;;5086890;28;20183;-76
2021/11/23 05:12:27;;;;;;;20.07;9.53;;;0.30;95.40;;;;;;5088427;28;20554;-75
2021/11/23 05:14:53;;;;;;;21.07;9.80;;;0.30;95.40;;;;;;5087092;28;20437;-75
2021/11/23 05:17:18;;;;;;;19.57;10.57;;;0.20;95.40;;;;;;5088302;28;20183;-74
2021/11/23 05:19:44;;;;;;;22.43;10.57;;;0.20;95.50;;;;;;5088351;28;20179;-75
2021/11/23 05:22:10;;;;;;;20.20;10.77;;;0.20;95.60;;;;;;5086895;28;20187;-77
2021/11/23 05:24:36;;;;;;;20.00;10.27;;;0.20;95.70;;;;;;5087487;28;20269;-75
2021/11/23 05:27:03;;;;;;;22.45;11.25;;;0.20;95.80;;;;;;5087181;28;20183;-74
2021/11/23 05:29:29;;;;;;;23.10;11.60;;;0.30;95.90;;;;;;5080044;28;20689;-76
2021/11/23 05:31:55;;;;;;;19.30;10.35;;;0.40;95.80;;;;;;5087608;28;20270;-77
2021/11/23 05:34:21;;;;;;;21.33;10.68;;;0.40;95.70;;;;;;5087010;28;20199;-77
2021/11/23 05:36:47;;;;;;;19.20;10.80;;;0.50;95.70;;;;;;5088938;28;20190;-77
2021/11/23 05:39:13;;;;;;;21.67;11.43;;;0.50;95.60;;;;;;5086600;28;20442;-75
2021/11/23 05:41:40;;;;;;;26.40;12.13;;;0.60;95.40;;;;;;5091847;28;20206;-75
2021/11/23 05:44:06;;;;;;;21.63;10.82;;;0.60;95.30;;;;;;5092901;28;20187;-75
2021/11/23 05:46:33;;;;;;;20.00;9.98;;;0.60;95.20;;;;;;5091998;28;20171;-76
2021/11/23 05:48:58;;;;;;;21.05;11.00;;;0.60;94.90;;;;;;5094304;28;20263;-75
2021/11/23 05:51:24;;;;;;;24.57;11.70;;;0.70;94.60;;;;;;5095866;28;20211;-76
2021/11/23 05:53:50;;;;;;;22.00;11.10;;;0.70;94.40;;;;;;5090984;28;20806;-75
2021/11/23 05:56:16;;;;;;;22.77;11.27;;;0.60;94.40;;;;;;5098428;28;20455;-76
2021/11/23 05:58:42;;;;;;;23.80;11.50;;;0.60;94.40;;;;;;5094141;28;21038;-75
2021/11/23 06:01:07;;;;;;;24.90;10.93;;;0.50;94.50;;;;;;5093394;28;20263;-76
2021/11/23 06:03:33;;;;;;;21.20;10.83;;;0.50;94.60;;;;;;5092916;28;20218;-76
2021/11/23 06:06:00;;;;;;;19.03;10.40;;;0.50;94.60;;;;;;5093082;28;20278;-75
2021/11/23 06:08:26;;;;;;;20.35;10.35;;;0.50;94.60;;;;;;5093212;28;20954;-76
2021/11/23 06:10:52;;;;;;;26.67;11.40;;;0.50;94.60;;;;;;5091471;28;20255;-76
2021/11/23 06:13:18;;;;;;;22.77;11.20;;;0.50;94.60;;;;;;5092873;28;20508;-75
2021/11/23 06:15:45;;;;;;;23.93;11.20;;;0.50;94.60;;;;;;5092365;28;20218;-76
2021/11/23 06:18:13;;;;;;;23.63;11.25;;;0.40;94.60;;;;;;5091952;28;20444;-76
2021/11/23 06:20:42;;;;;;;21.90;11.25;;;0.40;94.60;;;;;;5091684;28;20828;-75
2021/11/23 06:23:08;;;;;;;20.80;10.30;;;0.40;94.60;;;;;;5091278;28;20183;-75
2021/11/23 06:25:34;;;;;;;25.27;12.63;;;0.40;94.70;;;;;;5089916;28;20278;-75
2021/11/23 06:28:00;;;;;;;21.63;11.40;;;0.40;94.70;;;;;;5091510;28;20286;-76
2021/11/23 06:30:25;;;;;;;18.90;10.00;;;0.40;94.70;;;;;;5091107;28;20190;-74
2021/11/23 06:32:51;;;;;;;27.57;13.20;;;0.40;94.80;;;;;;5088964;28;20207;-75
2021/11/23 06:35:17;;;;;;;21.80;11.77;;;0.30;94.70;;;;;;5092777;28;20195;-74
2021/11/23 06:37:44;;;;;;;24.03;12.00;;;0.20;94.60;;;;;;5092027;28;20568;-74
2021/11/23 06:40:10;;;;;;;27.63;12.75;;;0.20;94.80;;;;;;5088945;28;20187;-76
2021/11/23 06:42:36;;;;;;;24.27;12.45;;;0.10;94.90;;;;;;5092809;28;20627;-75
2021/11/23 06:45:03;;;;;;;25.47;12.90;;;0.00;95.00;;;;;;5092068;28;20255;-76
2021/11/23 06:47:29;;;;;;;21.95;11.93;;;0.00;95.20;;;;;;5092047;28;20409;-76
2021/11/23 06:49:55;;;;;;;23.03;12.27;;;0.00;95.20;;;;;;5092404;28;20186;-75
2021/11/23 06:52:23;;;;;;;23.53;14.07;;;-0.10;95.40;;;;;;5091464;28;20204;-75
2021/11/23 06:54:49;;;;;;;24.85;13.07;;;-0.20;95.60;;;;;;5092003;28;20476;-75
2021/11/23 06:57:15;;;;;;;26.17;13.13;;;-0.10;95.80;;;;;;5092094;28;20202;-76
2021/11/23 06:59:41;;;;;;;23.60;12.93;;;-0.10;95.90;;;;;;5091473;28;20638;-75
2021/11/23 07:02:07;;;;;;;22.63;12.80;;;-0.20;95.90;;;;;;5091691;28;20191;-76
2021/11/23 07:04:34;;;;;;;25.52;12.73;;;-0.20;96.00;;;;;;5090175;28;21275;-76
2021/11/23 07:07:00;;;;;;;23.92;11.63;;;-0.10;96.00;;;;;;5088539;28;20549;-74
2021/11/23 07:09:26;;;;;;;24.08;12.30;;;-0.20;96.00;;;;;;5090993;28;20225;-75
2021/11/23 07:11:52;;;;;;;24.17;11.97;;;-0.10;96.10;;;;;;5090529;28;20661;-75
2021/11/23 07:14:19;;;;;;;28.83;13.50;;;-0.20;96.10;;;;;;5088188;28;20211;-76
2021/11/23 07:16:45;;;;;;;28.00;13.80;;;-0.10;96.10;;;;;;5090689;28;20262;-74
2021/11/23 07:19:11;;;;;;;24.40;12.68;;;-0.20;96.20;;;;;;5090127;28;20195;-76
2021/11/23 07:21:37;;;;;;;27.75;13.10;;;-0.20;96.30;;;;;;5090801;28;20528;-76
2021/11/23 07:24:03;;;;;;;25.73;13.40;;;-0.10;96.30;;;;;;5089831;28;20260;-76
2021/11/23 07:26:31;;;;;;;28.42;13.50;;;-0.10;96.30;;;;;;5090764;28;20175;-75
2021/11/23 07:28:58;;;;;;;34.58;14.57;;;0.00;96.30;;;;;;5090588;28;20293;-76
2021/11/23 07:31:26;;;;;;;23.02;12.30;;;-0.10;96.20;;;;;;5088842;28;20191;-75
2021/11/23 07:33:52;;;;;;;26.17;12.77;;;0.00;96.20;;;;;;5087436;28;20207;-75
2021/11/23 07:36:19;;;;;;;31.13;13.30;;;0.00;96.20;;;;;;5090530;28;20183;-75
2021/11/23 07:38:47;;;;;;;27.58;14.25;;;0.00;96.30;;;;;;5089118;28;20991;-75
2021/11/23 07:41:13;;;;;;;30.25;13.00;;;0.00;96.30;;;;;;5089259;28;20624;-76
2021/11/23 07:43:38;;;;;;;26.55;12.75;;;0.00;96.20;;;;;;5091708;28;20187;-76
2021/11/23 07:46:04;;;;;;;25.40;12.87;;;0.00;96.20;;;;;;5093086;28;20186;-74
2021/11/23 07:48:30;;;;;;;31.53;13.73;;;0.10;96.10;;;;;;5092288;28;20250;-76
2021/11/23 07:50:56;;;;;;;35.47;14.67;;;0.10;96.10;;;;;;5100904;28;20417;-76
2021/11/23 07:53:22;;;;;;;28.73;13.33;;;0.10;96.10;;;;;;5098073;28;20553;-76
2021/11/23 07:55:51;;;;;;;26.20;12.87;;;0.20;96.10;;;;;;5091182;28;21091;-75
2021/11/23 07:58:18;;;;;;;29.08;13.85;;;0.20;96.00;;;;;;5089634;28;20441;-76
2021/11/23 08:00:44;;;;;;;30.17;13.75;;;0.20;96.10;;;;;;5090003;28;20741;-75
2021/11/23 08:03:11;;;;;;;28.70;13.48;;;0.30;96.10;;;;;;5089414;28;20232;-75
2021/11/23 08:05:38;;;;;;;30.55;13.80;;;0.40;95.90;;;;;;5089654;28;20194;-76
2021/11/23 08:08:05;;;;;;;28.60;13.85;;;0.50;95.80;;;;;;5089504;28;20207;-74
2021/11/23 08:10:32;;;;;;;29.08;14.35;;;0.60;95.60;;;;;;5089428;28;20694;-74
2021/11/23 08:12:57;;;;;;;28.95;13.68;;;0.70;95.40;;;;;;5089438;28;20214;-76
2021/11/23 08:15:23;;;;;;;27.60;13.40;;;0.80;94.90;;;;;;5088983;28;20179;-75
2021/11/23 08:17:51;;;;;;;27.77;14.70;;;0.90;94.40;;;;;;5088936;28;20207;-76
2021/11/23 08:20:17;;;;;;;26.52;13.05;;;0.90;93.90;;;;;;5090761;28;20183;-74
2021/11/23 08:22:44;;;;;;;31.15;13.80;;;1.00;93.70;;;;;;5092838;28;20175;-74
2021/11/23 08:25:11;;;;;;;27.40;14.18;;;1.00;93.40;;;;;;5089253;28;20182;-76
2021/11/23 08:27:37;;;;;;;27.45;12.65;;;1.00;93.40;;;;;;5090270;28;20202;-75
2021/11/23 08:30:05;;;;;;;22.90;12.25;;;1.10;93.40;;;;;;5088164;28;20646;-76
2021/11/23 08:32:31;;;;;;;26.13;14.25;;;1.20;93.10;;;;;;5089686;28;20266;-75
2021/11/23 08:34:57;;;;;;;23.97;13.50;;;1.10;92.50;;;;;;5094051;28;20295;-76
2021/11/23 08:37:26;;;;;;;23.73;12.43;;;1.10;92.40;;;;;;5093355;28;20194;-75
2021/11/23 08:39:53;;;;;;;24.48;13.10;;;1.20;92.20;;;;;;5091586;28;20211;-76
2021/11/23 08:42:20;;;;;;;34.17;13.93;;;1.20;92.00;;;;;;5089727;28;20189;-76
2021/11/23 08:44:47;;;;;;;24.15;12.57;;;1.30;91.80;;;;;;5088511;28;20174;-76
2021/11/23 08:47:14;;;;;;;24.80;12.43;;;1.30;91.60;;;;;;5089119;28;20179;-75
2021/11/23 08:49:40;;;;;;;20.00;11.38;;;1.20;91.60;;;;;;5089305;28;20198;-75
2021/11/23 08:52:06;;;;;;;26.98;12.77;;;1.30;91.70;;;;;;5089661;28;20232;-77
2021/11/23 08:54:32;;;;;;;20.20;12.30;;;1.30;91.70;;;;;;5087090;28;20233;-76
2021/11/23 08:57:04;;;;;;;26.47;13.00;;;1.40;91.40;;;;;;5088110;28;20206;-75
2021/11/23 08:59:33;;;;;;;22.77;11.80;;;1.40;91.40;;;;;;5087292;28;20293;-75
2021/11/23 09:02:00;;;;;;;19.35;11.10;;;1.50;91.50;;;;;;5089947;28;20199;-76
2021/11/23 09:04:25;;;;;;;25.50;11.93;;;1.50;91.30;;;;;;5090484;28;20179;-75
2021/11/23 09:06:51;;;;;;;24.63;12.47;;;1.60;91.20;;;;;;5094192;28;20178;-76
2021/11/23 09:09:22;;;;;;;23.63;11.50;;;1.60;91.30;;;;;;5091792;28;20213;-76
2021/11/23 09:11:48;;;;;;;22.95;11.65;;;1.60;91.10;;;;;;5094679;28;20432;-77
2021/11/23 09:14:14;;;;;;;22.53;10.87;;;1.70;91.00;;;;;;5091255;28;20202;-74
2021/11/23 09:16:40;;;;;;;18.57;10.13;;;1.80;90.60;;;;;;5092676;28;20254;-76
2021/11/23 09:19:06;;;;;;;20.10;10.63;;;1.90;90.00;;;;;;5091466;28;20865;-76
2021/11/23 09:21:32;;;;;;;20.00;11.38;;;2.00;89.60;;;;;;5088693;28;20171;-76
2021/11/23 09:23:58;;;;;;;19.50;10.23;;;2.00;89.20;;;;;;5088074;28;20230;-75
2021/11/23 09:26:25;;;;;;;16.23;9.77;;;2.00;89.20;;;;;;5089048;28;20583;-75
2021/11/23 09:28:50;;;;;;;19.05;10.48;;;2.10;88.70;;;;;;5094644;28;20238;-75
2021/11/23 09:31:17;;;;;;;18.87;10.50;;;2.20;88.10;;;;;;5094382;28;20182;-79
2021/11/23 09:33:43;;;;;;;21.85;10.93;;;2.20;88.10;;;;;;5090040;28;20461;-76
2021/11/23 09:36:10;;;;;;;20.08;10.80;;;2.10;87.30;;;;;;5093259;28;20210;-76
2021/11/23 09:38:37;;;;;;;22.27;11.65;;;2.20;87.60;;;;;;5093016;28;20711;-76
2021/11/23 09:41:04;;;;;;;20.80;11.65;;;2.20;87.60;;;;;;5089595;28;20206;-75
2021/11/23 09:43:31;;;;;;;24.15;11.88;;;2.30;87.70;;;;;;5092037;28;20178;-74
2021/11/23 09:45:57;;;;;;;19.85;10.68;;;2.30;87.30;;;;;;5091780;28;20218;-76
2021/11/23 09:48:22;;;;;;;20.17;10.53;;;2.40;87.00;;;;;;5092988;28;20234;-76
2021/11/23 09:50:50;;;;;;;18.20;10.93;;;2.40;86.90;;;;;;5092778;28;20282;-76
2021/11/23 09:53:18;;;;;;;19.40;10.70;;;2.40;86.90;;;;;;5092680;28;20612;-76
2021/11/23 09:55:44;;;;;;;21.52;11.00;;;2.40;86.60;;;;;;5092940;28;20181;-75
2021/11/23 09:58:10;;;;;;;23.08;11.57;;;2.40;86.20;;;;;;5093066;28;20272;-76
2021/11/23 10:00:40;;;;;;;17.92;10.75;;;2.40;86.60;;;;;;5092666;28;20208;-74
2021/11/23 10:03:13;;;;;;;18.42;10.90;;;2.50;86.80;;;;;;5092610;28;20198;-76
2021/11/23 10:05:40;;;;;;;16.92;10.60;;;2.50;86.80;;;;;;5092698;28;20190;-77
2021/11/23 10:08:18;;;;;;;22.67;12.27;;;2.60;86.50;;;;;;5092813;28;20260;-76
2021/11/23 10:10:52;;;;;;;18.02;11.15;;;2.80;85.60;;;;;;5090896;28;20182;-76
2021/11/23 10:13:20;;;;;;;22.52;10.77;;;3.00;84.60;;;;;;5090850;28;20235;-76
2021/11/23 10:15:47;;;;;;;19.23;10.60;;;3.20;83.70;;;;;;5091679;28;20179;-76
2021/11/23 10:18:23;;;;;;;19.80;10.27;;;3.70;83.10;;;;;;5091103;28;20441;-77
2021/11/23 10:20:50;;;;;;;20.83;9.67;;;4.20;81.20;;;;;;5092929;28;20427;-75
2021/11/23 10:23:55;;;;;;;15.53;8.73;;;4.40;77.10;;;;;;5091219;28;20433;-76
2021/11/23 10:26:31;;;;;;;17.77;9.67;;;4.40;77.00;;;;;;5028890;28;21134;-76
2021/11/23 10:29:08;;;;;;;17.57;9.90;;;4.70;76.80;;;;;;5031578;28;20957;-75
2021/11/23 10:31:37;;;;;;;19.00;9.83;;;4.80;75.10;;;;;;5021528;28;20443;-75
2021/11/23 10:34:14;;;;;;;16.73;8.67;;;5.00;74.90;;;;;;5028564;28;20471;-75
2021/11/23 10:36:44;;;;;;;15.73;9.10;;;5.30;74.30;;;;;;5031228;28;20514;-76
2021/11/23 10:39:13;;;;;;;15.37;8.90;;;5.40;73.20;;;;;;5034172;28;20808;-76
2021/11/23 10:41:41;;;;;;;14.93;9.30;;;5.50;72.40;;;;;;5028747;28;21311;-76
2021/11/23 10:44:21;;;;;;;13.40;8.60;;;5.60;72.60;;;;;;5028769;28;20507;-76
2021/11/23 10:46:55;;;;;;;16.13;9.83;;;5.90;72.40;;;;;;5029795;28;20427;-75
2021/11/23 10:49:31;;;;;;;14.93;8.47;;;6.40;71.60;;;;;;5038818;28;20435;-77
2021/11/23 10:51:58;;;;;;;14.87;7.70;;;6.70;69.70;;;;;;5033282;28;20439;-76
2021/11/23 10:54:24;;;;;;;11.40;7.00;;;6.70;68.50;;;;;;5039019;28;20886;-76
2021/11/23 10:57:10;;;;;;;15.73;8.10;;;6.50;68.30;;;;;;5026130;28;20412;-77
2021/11/23 10:59:39;;;;;;;12.63;8.00;;;6.30;69.50;;;;;;5047843;28;20970;-76
2021/11/23 11:02:06;;;;;;;17.13;8.90;;;6.20;70.10;;;;;;5091379;28;20845;-76
2021/11/23 11:04:34;;;;;;;14.43;8.30;;;6.00;70.50;;;;;;5088754;28;20417;-76
2021/11/23 11:07:02;;;;;;;15.13;8.90;;;5.80;71.00;;;;;;5091060;28;20428;-76
2021/11/23 11:09:29;;;;;;;13.03;7.97;;;5.70;71.40;;;;;;5092370;28;20432;-76
2021/11/23 11:11:55;;;;;;;14.00;7.57;;;5.20;72.00;;;;;;5091951;28;20424;-76
2021/11/23 11:14:22;;;;;;;20.63;8.80;;;5.00;72.60;;;;;;5090138;28;20461;-76
2021/11/23 11:16:48;;;;;;;12.90;7.83;;;4.80;74.20;;;;;;5091356;28;20675;-76
2021/11/23 11:19:15;;;;;;;13.47;8.57;;;4.60;75.40;;;;;;5089503;28;20441;-75
2021/11/23 11:22:05;;;;;;;15.77;9.97;;;4.50;75.70;;;;;;5091214;28;20453;-75
2021/11/23 11:24:44;;;;;;;19.90;9.80;;;4.50;76.50;;;;;;5082266;28;20417;-75
2021/11/23 11:27:32;;;;;;;18.00;10.10;;;4.50;76.80;;;;;;5090211;28;21046;-77
2021/11/23 11:30:16;;;;;;;14.40;9.00;;;4.50;77.30;;;;;;5089659;28;20426;-76
2021/11/23 11:32:42;;;;;;;14.93;9.30;;;4.40;76.80;;;;;;5084290;28;20421;-76
2021/11/23 11:35:21;;;;;;;13.83;8.90;;;4.40;76.70;;;;;;5090211;28;20425;-76
2021/11/23 11:37:49;;;;;;;13.50;8.60;;;4.50;77.10;;;;;;5091802;28;20744;-76
2021/11/23 11:40:27;;;;;;;16.17;8.40;;;4.60;76.80;;;;;;5090538;28;20421;-75
2021/11/23 11:43:04;;;;;;;13.97;7.23;;;4.60;76.80;;;;;;5094645;28;20444;-76
2021/11/23 11:45:38;;;;;;;15.10;8.13;;;4.60;76.80;;;;;;5093676;28;20413;-75
2021/11/23 11:51:06;;;;;;;14.13;7.03;;;4.70;76.20;;;;;;5090325;28;20405;-76
2021/11/23 11:53:47;;;;;;;10.07;6.93;;;4.80;75.90;;;;;;5090556;28;20460;-77
2021/11/23 11:56:35;;;;;;;15.20;7.60;;;4.90;74.90;;;;;;5091720;28;20593;-75
2021/11/23 11:59:24;;;;;;;12.60;6.60;;;4.90;75.20;;;;;;5090604;28;20455;-75
2021/11/23 12:02:00;;;;;;;12.80;7.80;;;4.90;75.40;;;;;;5085228;28;20421;-75
2021/11/23 12:04:28;;;;;;;11.03;6.97;;;5.00;75.50;;;;;;5091580;28;20416;-76
2021/11/23 12:06:54;;;;;;;13.60;6.90;;;5.00;75.10;;;;;;5098714;28;20421;-76
2021/11/23 12:09:31;;;;;;;11.60;6.30;;;5.00;74.90;;;;;;5097567;28;20443;-76
2021/11/23 12:12:12;;;;;;;10.60;5.80;;;5.10;74.80;;;;;;5094664;28;20485;-76
2021/11/23 12:14:54;;;;;;;10.50;6.40;;;5.10;74.20;;;;;;5090749;28;20943;-76
2021/11/23 12:17:36;;;;;;;10.67;5.80;;;5.10;74.30;;;;;;5091537;28;20428;-76
2021/11/23 12:20:08;;;;;;;11.90;6.00;;;5.30;73.20;;;;;;5090989;28;20429;-75
2021/11/23 12:22:45;;;;;;;8.70;5.40;;;5.40;72.40;;;;;;5089019;28;20431;-75
2021/11/23 12:25:12;;;;;;;8.47;5.07;;;5.60;70.70;;;;;;5092719;28;20417;-76
2021/11/23 12:27:46;;;;;;;7.23;4.70;;;5.90;69.80;;;;;;5095311;28;20424;-76
2021/11/23 12:30:19;;;;;;;7.30;5.10;;;6.10;69.10;;;;;;5094319;28;20420;-74
2021/11/23 12:32:46;;;;;;;7.30;5.47;;;6.30;67.60;;;;;;5092219;28;20405;-76
2021/11/23 12:35:15;;;;;;;11.10;5.20;;;6.50;67.30;;;;;;5091757;28;20436;-76
2021/11/23 12:37:44;;;;;;;9.77;5.40;;;6.60;66.10;;;;;;5093739;28;20447;-76
2021/11/23 12:40:20;;;;;;;7.57;5.10;;;6.60;65.60;;;;;;5093009;28;20453;-75
2021/11/23 12:42:52;;;;;;;12.53;5.00;;;6.50;65.80;;;;;;5090059;28;20436;-76
2021/11/23 12:45:36;;;;;;;10.03;5.67;;;6.40;66.00;;;;;;5089058;28;20413;-75
2021/11/23 12:48:05;;;;;;;10.57;5.60;;;6.40;66.60;;;;;;5089189;28;20441;-77
2021/11/23 12:50:32;;;;;;;9.83;5.40;;;6.50;66.60;;;;;;5078053;28;20470;-74